sensor_id;sensor_type;location;lat;lon;timestamp;P1;durP1;ratioP1;P2;durP2;ratioP2
5702;SDS011;2876;51.738;10.050;2022-11-15T00:02:13;17.70;;;10.33;;
5702;SDS011;2876;51.738;10.050;2022-11-15T00:08:15;13.00;;;8.10;;
5702;SDS011;2876;51.738;10.050;2022-11-15T00:14:18;11.03;;;8.30;;
5702;SDS011;2876;51.738;10.050;2022-11-15T00:20:20;13.30;;;7.97;;
5702;SDS011;2876;51.738;10.050;2022-11-15T00:26:22;12.80;;;8.30;;
5702;SDS011;2876;51.738;10.050;2022-11-15T00:32:24;11.57;;;8.87;;
5702;SDS011;2876;51.738;10.050;2022-11-15T00:38:29;11.47;;;7.27;;
5702;SDS011;2876;51.738;10.050;2022-11-15T00:44:35;10.33;;;6.47;;
5702;SDS011;2876;51.738;10.050;2022-11-15T00:50:37;12.93;;;7.70;;
5702;SDS011;2876;51.738;10.050;2022-11-15T00:56:39;8.10;;;6.53;;
5702;SDS011;2876;51.738;10.050;2022-11-15T01:02:41;9.90;;;6.83;;
5702;SDS011;2876;51.738;10.050;2022-11-15T01:08:43;7.40;;;6.33;;
5702;SDS011;2876;51.738;10.050;2022-11-15T01:14:45;6.57;;;5.13;;
5702;SDS011;2876;51.738;10.050;2022-11-15T01:20:47;12.70;;;6.10;;
5702;SDS011;2876;51.738;10.050;2022-11-15T01:26:48;12.90;;;6.70;;
5702;SDS011;2876;51.738;10.050;2022-11-15T01:32:50;8.77;;;5.30;;
5702;SDS011;2876;51.738;10.050;2022-11-15T01:38:56;4.90;;;4.40;;
5702;SDS011;2876;51.738;10.050;2022-11-15T01:45:00;5.80;;;5.20;;
5702;SDS011;2876;51.738;10.050;2022-11-15T01:51:02;10.03;;;5.33;;
5702;SDS011;2876;51.738;10.050;2022-11-15T01:57:10;7.43;;;4.90;;
5702;SDS011;2876;51.738;10.050;2022-11-15T02:03:14;7.90;;;4.73;;
5702;SDS011;2876;51.738;10.050;2022-11-15T02:09:17;5.43;;;4.60;;
5702;SDS011;2876;51.738;10.050;2022-11-15T02:15:19;8.97;;;5.00;;
5702;SDS011;2876;51.738;10.050;2022-11-15T02:21:31;5.53;;;4.60;;
5702;SDS011;2876;51.738;10.050;2022-11-15T02:34:28;8.50;;;6.23;;
5702;SDS011;2876;51.738;10.050;2022-11-15T02:46:57;10.40;;;5.93;;
5702;SDS011;2876;51.738;10.050;2022-11-15T02:53:16;6.43;;;5.53;;
5702;SDS011;2876;51.738;10.050;2022-11-15T03:05:55;8.63;;;6.50;;
5702;SDS011;2876;51.738;10.050;2022-11-15T03:12:24;11.33;;;7.00;;
5702;SDS011;2876;51.738;10.050;2022-11-15T03:18:43;8.03;;;5.70;;
5702;SDS011;2876;51.738;10.050;2022-11-15T03:24:56;9.07;;;6.63;;
5702;SDS011;2876;51.738;10.050;2022-11-15T03:31:02;9.87;;;6.30;;
5702;SDS011;2876;51.738;10.050;2022-11-15T03:37:29;10.87;;;6.57;;
5702;SDS011;2876;51.738;10.050;2022-11-15T03:43:51;10.67;;;6.33;;
5702;SDS011;2876;51.738;10.050;2022-11-15T03:50:11;12.73;;;6.77;;
5702;SDS011;2876;51.738;10.050;2022-11-15T03:56:18;8.23;;;6.10;;
5702;SDS011;2876;51.738;10.050;2022-11-15T04:02:20;7.67;;;5.13;;
5702;SDS011;2876;51.738;10.050;2022-11-15T04:08:22;7.10;;;4.83;;
5702;SDS011;2876;51.738;10.050;2022-11-15T04:14:24;9.83;;;6.40;;
5702;SDS011;2876;51.738;10.050;2022-11-15T04:20:26;7.77;;;5.43;;
5702;SDS011;2876;51.738;10.050;2022-11-15T04:26:49;8.87;;;5.67;;
5702;SDS011;2876;51.738;10.050;2022-11-15T04:32:51;9.60;;;5.40;;
5702;SDS011;2876;51.738;10.050;2022-11-15T04:38:53;7.33;;;5.30;;
5702;SDS011;2876;51.738;10.050;2022-11-15T04:44:54;8.93;;;5.53;;
5702;SDS011;2876;51.738;10.050;2022-11-15T04:50:57;5.50;;;4.83;;
5702;SDS011;2876;51.738;10.050;2022-11-15T04:56:59;6.10;;;5.03;;
5702;SDS011;2876;51.738;10.050;2022-11-15T05:03:01;5.80;;;3.97;;
5702;SDS011;2876;51.738;10.050;2022-11-15T05:09:22;6.60;;;4.67;;
5702;SDS011;2876;51.738;10.050;2022-11-15T05:15:24;7.03;;;4.80;;
5702;SDS011;2876;51.738;10.050;2022-11-15T05:21:26;8.97;;;5.07;;
5702;SDS011;2876;51.738;10.050;2022-11-15T05:27:28;7.23;;;4.50;;
5702;SDS011;2876;51.738;10.050;2022-11-15T05:33:30;8.60;;;4.90;;
5702;SDS011;2876;51.738;10.050;2022-11-15T05:39:33;7.97;;;5.00;;
5702;SDS011;2876;51.738;10.050;2022-11-15T05:45:35;7.60;;;4.33;;
5702;SDS011;2876;51.738;10.050;2022-11-15T05:51:38;7.00;;;4.50;;
5702;SDS011;2876;51.738;10.050;2022-11-15T05:57:40;5.77;;;4.37;;
5702;SDS011;2876;51.738;10.050;2022-11-15T06:03:43;11.87;;;5.13;;
5702;SDS011;2876;51.738;10.050;2022-11-15T06:09:45;6.37;;;4.10;;
5702;SDS011;2876;51.738;10.050;2022-11-15T06:15:46;6.10;;;4.60;;
5702;SDS011;2876;51.738;10.050;2022-11-15T06:21:48;5.30;;;4.50;;
5702;SDS011;2876;51.738;10.050;2022-11-15T06:27:51;9.33;;;3.90;;
5702;SDS011;2876;51.738;10.050;2022-11-15T06:33:54;6.80;;;4.77;;
5702;SDS011;2876;51.738;10.050;2022-11-15T06:39:56;7.17;;;3.43;;
5702;SDS011;2876;51.738;10.050;2022-11-15T06:45:58;7.37;;;4.57;;
5702;SDS011;2876;51.738;10.050;2022-11-15T06:52:01;9.43;;;4.50;;
5702;SDS011;2876;51.738;10.050;2022-11-15T06:58:03;6.87;;;4.80;;
5702;SDS011;2876;51.738;10.050;2022-11-15T07:04:05;10.30;;;4.77;;
5702;SDS011;2876;51.738;10.050;2022-11-15T07:10:07;5.73;;;4.57;;
5702;SDS011;2876;51.738;10.050;2022-11-15T07:16:10;7.17;;;4.97;;
5702;SDS011;2876;51.738;10.050;2022-11-15T07:22:12;9.60;;;5.30;;
5702;SDS011;2876;51.738;10.050;2022-11-15T07:28:14;7.13;;;4.13;;
5702;SDS011;2876;51.738;10.050;2022-11-15T07:34:16;9.90;;;5.93;;
5702;SDS011;2876;51.738;10.050;2022-11-15T07:40:18;11.27;;;6.60;;
5702;SDS011;2876;51.738;10.050;2022-11-15T07:46:19;11.40;;;5.60;;
5702;SDS011;2876;51.738;10.050;2022-11-15T07:52:21;9.37;;;5.10;;
5702;SDS011;2876;51.738;10.050;2022-11-15T07:58:23;6.93;;;5.13;;
5702;SDS011;2876;51.738;10.050;2022-11-15T08:04:25;11.20;;;4.70;;
5702;SDS011;2876;51.738;10.050;2022-11-15T08:10:27;6.20;;;5.53;;
5702;SDS011;2876;51.738;10.050;2022-11-15T08:16:30;6.97;;;5.60;;
5702;SDS011;2876;51.738;10.050;2022-11-15T08:22:33;6.77;;;5.47;;
5702;SDS011;2876;51.738;10.050;2022-11-15T08:28:35;7.53;;;5.70;;
5702;SDS011;2876;51.738;10.050;2022-11-15T08:34:37;9.13;;;6.13;;
5702;SDS011;2876;51.738;10.050;2022-11-15T08:40:39;9.67;;;6.20;;
5702;SDS011;2876;51.738;10.050;2022-11-15T08:46:41;9.33;;;6.30;;
5702;SDS011;2876;51.738;10.050;2022-11-15T08:52:46;7.97;;;5.57;;
5702;SDS011;2876;51.738;10.050;2022-11-15T08:58:49;6.97;;;5.60;;
5702;SDS011;2876;51.738;10.050;2022-11-15T09:04:51;5.83;;;4.90;;
5702;SDS011;2876;51.738;10.050;2022-11-15T09:10:53;8.13;;;5.70;;
5702;SDS011;2876;51.738;10.050;2022-11-15T09:16:55;7.40;;;5.07;;
5702;SDS011;2876;51.738;10.050;2022-11-15T09:23:00;8.13;;;5.60;;
5702;SDS011;2876;51.738;10.050;2022-11-15T09:29:04;6.90;;;5.20;;
5702;SDS011;2876;51.738;10.050;2022-11-15T09:35:06;6.53;;;4.93;;
5702;SDS011;2876;51.738;10.050;2022-11-15T09:53:56;6.00;;;4.60;;
5702;SDS011;2876;51.738;10.050;2022-11-15T10:00:50;7.77;;;5.37;;
5702;SDS011;2876;51.738;10.050;2022-11-15T10:07:04;7.00;;;5.00;;
5702;SDS011;2876;51.738;10.050;2022-11-15T10:13:22;5.07;;;4.03;;
5702;SDS011;2876;51.738;10.050;2022-11-15T10:19:30;5.90;;;3.70;;
5702;SDS011;2876;51.738;10.050;2022-11-15T10:26:07;7.13;;;4.37;;
5702;SDS011;2876;51.738;10.050;2022-11-15T10:32:17;7.50;;;4.37;;
5702;SDS011;2876;51.738;10.050;2022-11-15T10:38:21;4.90;;;4.00;;
5702;SDS011;2876;51.738;10.050;2022-11-15T10:44:27;4.93;;;3.87;;
5702;SDS011;2876;51.738;10.050;2022-11-15T10:50:31;4.93;;;3.37;;
5702;SDS011;2876;51.738;10.050;2022-11-15T10:56:34;4.50;;;3.40;;
5702;SDS011;2876;51.738;10.050;2022-11-15T11:02:40;4.20;;;3.53;;
5702;SDS011;2876;51.738;10.050;2022-11-15T11:08:58;6.63;;;4.40;;
5702;SDS011;2876;51.738;10.050;2022-11-15T11:15:10;3.60;;;3.30;;
5702;SDS011;2876;51.738;10.050;2022-11-15T11:21:22;4.37;;;3.63;;
5702;SDS011;2876;51.738;10.050;2022-11-15T11:34:15;6.27;;;3.73;;
5702;SDS011;2876;51.738;10.050;2022-11-15T11:47:10;4.40;;;3.73;;
5702;SDS011;2876;51.738;10.050;2022-11-15T11:53:34;6.70;;;3.50;;
5702;SDS011;2876;51.738;10.050;2022-11-15T11:59:50;4.27;;;3.47;;
5702;SDS011;2876;51.738;10.050;2022-11-15T12:06:04;4.50;;;3.27;;
5702;SDS011;2876;51.738;10.050;2022-11-15T12:19:07;4.97;;;3.20;;
5702;SDS011;2876;51.738;10.050;2022-11-15T12:25:20;6.10;;;3.57;;
5702;SDS011;2876;51.738;10.050;2022-11-15T12:31:39;5.73;;;3.50;;
5702;SDS011;2876;51.738;10.050;2022-11-15T12:37:47;3.10;;;2.80;;
5702;SDS011;2876;51.738;10.050;2022-11-15T12:43:56;3.80;;;2.90;;
5702;SDS011;2876;51.738;10.050;2022-11-15T12:50:00;4.30;;;2.67;;
5702;SDS011;2876;51.738;10.050;2022-11-15T13:02:20;9.60;;;3.33;;
5702;SDS011;2876;51.738;10.050;2022-11-15T13:08:42;3.90;;;3.23;;
5702;SDS011;2876;51.738;10.050;2022-11-15T13:20:53;3.50;;;3.20;;
5702;SDS011;2876;51.738;10.050;2022-11-15T13:27:02;3.70;;;3.20;;
5702;SDS011;2876;51.738;10.050;2022-11-15T13:33:22;4.00;;;3.00;;
5702;SDS011;2876;51.738;10.050;2022-11-15T13:39:38;3.50;;;3.17;;
5702;SDS011;2876;51.738;10.050;2022-11-15T13:45:40;4.53;;;3.40;;
5702;SDS011;2876;51.738;10.050;2022-11-15T13:51:52;5.10;;;4.03;;
5702;SDS011;2876;51.738;10.050;2022-11-15T13:57:57;5.27;;;3.57;;
5702;SDS011;2876;51.738;10.050;2022-11-15T14:04:01;5.27;;;3.50;;
5702;SDS011;2876;51.738;10.050;2022-11-15T14:10:24;4.20;;;3.73;;
5702;SDS011;2876;51.738;10.050;2022-11-15T14:16:38;5.20;;;3.60;;
5702;SDS011;2876;51.738;10.050;2022-11-15T14:22:53;4.40;;;3.50;;
5702;SDS011;2876;51.738;10.050;2022-11-15T14:28:56;4.13;;;3.03;;
5702;SDS011;2876;51.738;10.050;2022-11-15T14:35:19;4.10;;;3.03;;
5702;SDS011;2876;51.738;10.050;2022-11-15T14:41:24;8.23;;;2.80;;
5702;SDS011;2876;51.738;10.050;2022-11-15T14:47:27;6.63;;;3.60;;
5702;SDS011;2876;51.738;10.050;2022-11-15T14:53:29;7.33;;;3.50;;
5702;SDS011;2876;51.738;10.050;2022-11-15T14:59:31;7.70;;;3.40;;
5702;SDS011;2876;51.738;10.050;2022-11-15T15:05:40;3.50;;;2.37;;
5702;SDS011;2876;51.738;10.050;2022-11-15T15:11:44;3.17;;;2.87;;
5702;SDS011;2876;51.738;10.050;2022-11-15T15:17:46;4.70;;;3.30;;
5702;SDS011;2876;51.738;10.050;2022-11-15T15:23:49;2.93;;;2.63;;
5702;SDS011;2876;51.738;10.050;2022-11-15T15:29:52;4.83;;;3.00;;
5702;SDS011;2876;51.738;10.050;2022-11-15T15:35:53;6.90;;;3.47;;
5702;SDS011;2876;51.738;10.050;2022-11-15T15:41:55;2.93;;;2.33;;
5702;SDS011;2876;51.738;10.050;2022-11-15T15:47:57;2.80;;;2.50;;
5702;SDS011;2876;51.738;10.050;2022-11-15T15:53:59;4.17;;;3.23;;
5702;SDS011;2876;51.738;10.050;2022-11-15T16:00:02;5.40;;;3.83;;
5702;SDS011;2876;51.738;10.050;2022-11-15T16:06:22;6.20;;;3.53;;
5702;SDS011;2876;51.738;10.050;2022-11-15T16:12:37;5.50;;;3.20;;
5702;SDS011;2876;51.738;10.050;2022-11-15T16:18:38;7.50;;;3.90;;
5702;SDS011;2876;51.738;10.050;2022-11-15T16:24:40;5.60;;;3.60;;
5702;SDS011;2876;51.738;10.050;2022-11-15T16:30:42;7.37;;;4.77;;
5702;SDS011;2876;51.738;10.050;2022-11-15T16:36:44;5.40;;;3.80;;
5702;SDS011;2876;51.738;10.050;2022-11-15T16:42:46;5.90;;;3.50;;
5702;SDS011;2876;51.738;10.050;2022-11-15T16:48:48;4.83;;;3.73;;
5702;SDS011;2876;51.738;10.050;2022-11-15T16:54:50;5.87;;;4.03;;
5702;SDS011;2876;51.738;10.050;2022-11-15T17:00:53;7.27;;;4.53;;
5702;SDS011;2876;51.738;10.050;2022-11-15T17:06:57;8.50;;;5.67;;
5702;SDS011;2876;51.738;10.050;2022-11-15T17:12:59;7.47;;;5.03;;
5702;SDS011;2876;51.738;10.050;2022-11-15T17:19:01;6.33;;;4.30;;
5702;SDS011;2876;51.738;10.050;2022-11-15T17:25:03;5.83;;;4.60;;
5702;SDS011;2876;51.738;10.050;2022-11-15T17:31:09;8.80;;;4.27;;
5702;SDS011;2876;51.738;10.050;2022-11-15T17:37:14;9.17;;;4.87;;
5702;SDS011;2876;51.738;10.050;2022-11-15T17:43:16;5.97;;;4.73;;
5702;SDS011;2876;51.738;10.050;2022-11-15T17:49:18;6.47;;;4.50;;
5702;SDS011;2876;51.738;10.050;2022-11-15T17:55:19;7.30;;;4.37;;
5702;SDS011;2876;51.738;10.050;2022-11-15T18:01:25;7.20;;;3.80;;
5702;SDS011;2876;51.738;10.050;2022-11-15T18:07:30;10.27;;;4.60;;
5702;SDS011;2876;51.738;10.050;2022-11-15T18:13:36;4.57;;;4.10;;
5702;SDS011;2876;51.738;10.050;2022-11-15T18:19:39;6.30;;;4.30;;
5702;SDS011;2876;51.738;10.050;2022-11-15T18:25:41;6.67;;;4.57;;
5702;SDS011;2876;51.738;10.050;2022-11-15T18:31:44;6.97;;;4.90;;
5702;SDS011;2876;51.738;10.050;2022-11-15T18:37:48;7.10;;;5.10;;
5702;SDS011;2876;51.738;10.050;2022-11-15T18:43:50;8.33;;;4.50;;
5702;SDS011;2876;51.738;10.050;2022-11-15T18:49:52;10.17;;;5.13;;
5702;SDS011;2876;51.738;10.050;2022-11-15T18:55:59;6.20;;;4.50;;
5702;SDS011;2876;51.738;10.050;2022-11-15T19:02:02;6.53;;;4.30;;
5702;SDS011;2876;51.738;10.050;2022-11-15T19:08:04;6.37;;;5.20;;
5702;SDS011;2876;51.738;10.050;2022-11-15T19:20:13;11.20;;;6.07;;
5702;SDS011;2876;51.738;10.050;2022-11-15T19:26:16;8.67;;;5.30;;
5702;SDS011;2876;51.738;10.050;2022-11-15T19:32:18;5.47;;;4.77;;
5702;SDS011;2876;51.738;10.050;2022-11-15T19:38:21;11.10;;;5.57;;
5702;SDS011;2876;51.738;10.050;2022-11-15T19:44:23;9.43;;;5.43;;
5702;SDS011;2876;51.738;10.050;2022-11-15T19:50:27;12.57;;;5.50;;
5702;SDS011;2876;51.738;10.050;2022-11-15T19:56:29;6.80;;;5.47;;
5702;SDS011;2876;51.738;10.050;2022-11-15T20:02:31;10.77;;;5.47;;
5702;SDS011;2876;51.738;10.050;2022-11-15T20:08:33;7.70;;;4.60;;
5702;SDS011;2876;51.738;10.050;2022-11-15T20:14:36;5.10;;;4.23;;
5702;SDS011;2876;51.738;10.050;2022-11-15T20:20:38;6.80;;;5.07;;
5702;SDS011;2876;51.738;10.050;2022-11-15T20:26:40;8.23;;;4.87;;
5702;SDS011;2876;51.738;10.050;2022-11-15T20:32:43;9.33;;;5.00;;
5702;SDS011;2876;51.738;10.050;2022-11-15T20:38:45;8.10;;;5.00;;
5702;SDS011;2876;51.738;10.050;2022-11-15T20:44:47;9.20;;;5.53;;
5702;SDS011;2876;51.738;10.050;2022-11-15T20:50:49;9.63;;;5.93;;
5702;SDS011;2876;51.738;10.050;2022-11-15T20:56:51;10.07;;;5.60;;
5702;SDS011;2876;51.738;10.050;2022-11-15T21:02:53;8.07;;;5.67;;
5702;SDS011;2876;51.738;10.050;2022-11-15T21:08:55;6.60;;;5.90;;
5702;SDS011;2876;51.738;10.050;2022-11-15T21:15:16;8.93;;;5.60;;
5702;SDS011;2876;51.738;10.050;2022-11-15T21:21:19;8.27;;;5.63;;
5702;SDS011;2876;51.738;10.050;2022-11-15T21:27:21;14.03;;;6.00;;
5702;SDS011;2876;51.738;10.050;2022-11-15T21:33:23;9.47;;;5.80;;
5702;SDS011;2876;51.738;10.050;2022-11-15T21:39:27;7.83;;;5.70;;
5702;SDS011;2876;51.738;10.050;2022-11-15T21:45:29;6.83;;;5.77;;
5702;SDS011;2876;51.738;10.050;2022-11-15T21:51:31;6.80;;;5.50;;
5702;SDS011;2876;51.738;10.050;2022-11-15T21:57:34;9.47;;;5.53;;
5702;SDS011;2876;51.738;10.050;2022-11-15T22:03:36;9.80;;;5.30;;
5702;SDS011;2876;51.738;10.050;2022-11-15T22:09:38;5.50;;;4.50;;
5702;SDS011;2876;51.738;10.050;2022-11-15T22:15:40;5.53;;;4.40;;
5702;SDS011;2876;51.738;10.050;2022-11-15T22:21:45;8.27;;;4.17;;
5702;SDS011;2876;51.738;10.050;2022-11-15T22:27:47;6.00;;;4.70;;
5702;SDS011;2876;51.738;10.050;2022-11-15T22:33:49;10.73;;;4.50;;
5702;SDS011;2876;51.738;10.050;2022-11-15T22:39:51;8.00;;;4.70;;
5702;SDS011;2876;51.738;10.050;2022-11-15T22:45:54;8.33;;;5.47;;
5702;SDS011;2876;51.738;10.050;2022-11-15T22:51:58;6.10;;;5.23;;
5702;SDS011;2876;51.738;10.050;2022-11-15T22:58:00;7.30;;;4.73;;
5702;SDS011;2876;51.738;10.050;2022-11-15T23:04:02;6.83;;;5.20;;
5702;SDS011;2876;51.738;10.050;2022-11-15T23:10:04;5.30;;;4.50;;
5702;SDS011;2876;51.738;10.050;2022-11-15T23:16:25;8.53;;;5.87;;
5702;SDS011;2876;51.738;10.050;2022-11-15T23:22:34;9.93;;;5.63;;
5702;SDS011;2876;51.738;10.050;2022-11-15T23:28:48;7.20;;;5.20;;
5702;SDS011;2876;51.738;10.050;2022-11-15T23:34:50;6.33;;;4.97;;
5702;SDS011;2876;51.738;10.050;2022-11-15T23:40:53;7.37;;;5.10;;
5702;SDS011;2876;51.738;10.050;2022-11-15T23:46:55;8.60;;;6.07;;
5702;SDS011;2876;51.738;10.050;2022-11-15T23:52:57;8.33;;;5.33;;
5702;SDS011;2876;51.738;10.050;2022-11-15T23:58:59;9.43;;;5.93;;
